sensor_id;sensor_type;location;lat;lon;timestamp;temperature;humidity
10133;DHT22;5106;50.926;7.080;2022-10-31T00:02:16;12.20;85.40
10133;DHT22;5106;50.926;7.080;2022-10-31T00:04:42;12.20;85.60
10133;DHT22;5106;50.926;7.080;2022-10-31T00:07:07;12.10;85.60
10133;DHT22;5106;50.926;7.080;2022-10-31T00:09:33;12.10;85.70
10133;DHT22;5106;50.926;7.080;2022-10-31T00:11:58;12.10;85.90
10133;DHT22;5106;50.926;7.080;2022-10-31T00:14:24;12.10;85.90
10133;DHT22;5106;50.926;7.080;2022-10-31T00:16:49;12.00;85.80
10133;DHT22;5106;50.926;7.080;2022-10-31T00:19:15;12.00;85.90
10133;DHT22;5106;50.926;7.080;2022-10-31T00:21:41;12.00;85.70
10133;DHT22;5106;50.926;7.080;2022-10-31T00:24:06;12.00;85.70
10133;DHT22;5106;50.926;7.080;2022-10-31T00:26:32;11.90;85.80
10133;DHT22;5106;50.926;7.080;2022-10-31T00:28:58;11.90;85.80
10133;DHT22;5106;50.926;7.080;2022-10-31T00:31:24;11.90;85.90
10133;DHT22;5106;50.926;7.080;2022-10-31T00:33:50;11.90;85.90
10133;DHT22;5106;50.926;7.080;2022-10-31T00:36:18;11.90;85.90
10133;DHT22;5106;50.926;7.080;2022-10-31T00:38:45;11.90;86.00
10133;DHT22;5106;50.926;7.080;2022-10-31T00:41:11;11.90;86.10
10133;DHT22;5106;50.926;7.080;2022-10-31T00:43:37;12.00;86.10
10133;DHT22;5106;50.926;7.080;2022-10-31T00:46:03;12.00;86.20
10133;DHT22;5106;50.926;7.080;2022-10-31T00:48:29;12.10;86.10
10133;DHT22;5106;50.926;7.080;2022-10-31T00:50:55;12.10;85.80
10133;DHT22;5106;50.926;7.080;2022-10-31T00:53:21;12.00;85.70
10133;DHT22;5106;50.926;7.080;2022-10-31T00:55:47;12.00;85.90
10133;DHT22;5106;50.926;7.080;2022-10-31T00:58:13;12.00;85.80
10133;DHT22;5106;50.926;7.080;2022-10-31T01:00:38;12.00;86.00
10133;DHT22;5106;50.926;7.080;2022-10-31T01:03:04;12.00;86.00
10133;DHT22;5106;50.926;7.080;2022-10-31T01:05:30;12.00;86.10
10133;DHT22;5106;50.926;7.080;2022-10-31T01:07:55;12.00;86.20
10133;DHT22;5106;50.926;7.080;2022-10-31T01:10:21;12.00;86.30
10133;DHT22;5106;50.926;7.080;2022-10-31T01:12:48;12.10;86.40
10133;DHT22;5106;50.926;7.080;2022-10-31T01:15:21;12.10;86.30
10133;DHT22;5106;50.926;7.080;2022-10-31T01:17:47;12.10;86.20
10133;DHT22;5106;50.926;7.080;2022-10-31T01:20:14;12.20;86.20
10133;DHT22;5106;50.926;7.080;2022-10-31T01:22:40;12.20;86.10
10133;DHT22;5106;50.926;7.080;2022-10-31T01:25:06;12.20;85.90
10133;DHT22;5106;50.926;7.080;2022-10-31T01:27:32;12.10;85.80
10133;DHT22;5106;50.926;7.080;2022-10-31T01:29:58;12.00;85.90
10133;DHT22;5106;50.926;7.080;2022-10-31T01:32:24;12.00;85.90
10133;DHT22;5106;50.926;7.080;2022-10-31T01:34:49;11.90;85.90
10133;DHT22;5106;50.926;7.080;2022-10-31T01:37:15;11.90;86.00
10133;DHT22;5106;50.926;7.080;2022-10-31T01:39:41;11.90;86.10
10133;DHT22;5106;50.926;7.080;2022-10-31T01:42:06;11.90;86.10
10133;DHT22;5106;50.926;7.080;2022-10-31T01:47:19;11.90;86.10
10133;DHT22;5106;50.926;7.080;2022-10-31T01:49:54;11.90;86.10
10133;DHT22;5106;50.926;7.080;2022-10-31T01:52:26;11.90;86.10
10133;DHT22;5106;50.926;7.080;2022-10-31T01:57:42;11.90;86.10
10133;DHT22;5106;50.926;7.080;2022-10-31T02:00:10;11.90;86.10
10133;DHT22;5106;50.926;7.080;2022-10-31T02:02:36;11.90;86.00
10133;DHT22;5106;50.926;7.080;2022-10-31T02:05:05;11.80;86.00
10133;DHT22;5106;50.926;7.080;2022-10-31T02:07:52;11.80;86.10
10133;DHT22;5106;50.926;7.080;2022-10-31T02:10:22;11.80;86.20
10133;DHT22;5106;50.926;7.080;2022-10-31T02:12:53;11.80;86.20
10133;DHT22;5106;50.926;7.080;2022-10-31T02:15:20;11.80;86.20
10133;DHT22;5106;50.926;7.080;2022-10-31T02:17:49;11.80;85.90
10133;DHT22;5106;50.926;7.080;2022-10-31T02:20:18;11.70;86.00
10133;DHT22;5106;50.926;7.080;2022-10-31T02:23:14;11.70;86.20
10133;DHT22;5106;50.926;7.080;2022-10-31T02:26:09;11.70;86.20
10133;DHT22;5106;50.926;7.080;2022-10-31T02:31:49;11.60;86.20
10133;DHT22;5106;50.926;7.080;2022-10-31T02:34:36;11.60;86.30
10133;DHT22;5106;50.926;7.080;2022-10-31T02:37:14;11.50;86.30
10133;DHT22;5106;50.926;7.080;2022-10-31T02:45:06;11.60;86.50
10133;DHT22;5106;50.926;7.080;2022-10-31T02:47:37;11.60;86.50
10133;DHT22;5106;50.926;7.080;2022-10-31T02:52:33;11.60;86.40
10133;DHT22;5106;50.926;7.080;2022-10-31T02:55:39;11.50;86.40
10133;DHT22;5106;50.926;7.080;2022-10-31T03:00:48;11.60;86.40
10133;DHT22;5106;50.926;7.080;2022-10-31T03:03:30;11.50;86.20
10133;DHT22;5106;50.926;7.080;2022-10-31T03:08:54;11.60;86.20
10133;DHT22;5106;50.926;7.080;2022-10-31T03:11:26;11.50;86.10
10133;DHT22;5106;50.926;7.080;2022-10-31T03:14:02;11.50;86.30
10133;DHT22;5106;50.926;7.080;2022-10-31T03:19:10;11.60;86.50
10133;DHT22;5106;50.926;7.080;2022-10-31T03:22:02;11.60;86.60
10133;DHT22;5106;50.926;7.080;2022-10-31T03:24:34;11.60;86.60
10133;DHT22;5106;50.926;7.080;2022-10-31T03:27:01;11.60;86.50
10133;DHT22;5106;50.926;7.080;2022-10-31T03:29:30;11.70;86.50
10133;DHT22;5106;50.926;7.080;2022-10-31T03:32:09;11.70;86.50
10133;DHT22;5106;50.926;7.080;2022-10-31T03:34:41;11.70;86.40
10133;DHT22;5106;50.926;7.080;2022-10-31T03:37:09;11.70;86.50
10133;DHT22;5106;50.926;7.080;2022-10-31T03:39:38;11.70;86.50
10133;DHT22;5106;50.926;7.080;2022-10-31T03:42:27;11.70;86.60
10133;DHT22;5106;50.926;7.080;2022-10-31T03:45:21;11.70;86.60
10133;DHT22;5106;50.926;7.080;2022-10-31T03:47:48;11.70;86.60
10133;DHT22;5106;50.926;7.080;2022-10-31T03:50:15;11.70;86.60
10133;DHT22;5106;50.926;7.080;2022-10-31T03:52:48;11.80;86.50
10133;DHT22;5106;50.926;7.080;2022-10-31T03:55:18;11.70;86.30
10133;DHT22;5106;50.926;7.080;2022-10-31T03:58:06;11.70;86.20
10133;DHT22;5106;50.926;7.080;2022-10-31T04:00:35;11.60;86.20
10133;DHT22;5106;50.926;7.080;2022-10-31T04:03:14;11.60;86.30
10133;DHT22;5106;50.926;7.080;2022-10-31T04:05:42;11.50;86.30
10133;DHT22;5106;50.926;7.080;2022-10-31T04:08:12;11.50;86.30
10133;DHT22;5106;50.926;7.080;2022-10-31T04:10:40;11.40;86.30
10133;DHT22;5106;50.926;7.080;2022-10-31T04:13:12;11.40;86.30
10133;DHT22;5106;50.926;7.080;2022-10-31T04:15:39;11.40;86.40
10133;DHT22;5106;50.926;7.080;2022-10-31T04:18:06;11.40;86.30
10133;DHT22;5106;50.926;7.080;2022-10-31T04:20:37;11.40;86.30
10133;DHT22;5106;50.926;7.080;2022-10-31T04:23:04;11.40;86.10
10133;DHT22;5106;50.926;7.080;2022-10-31T04:25:30;11.30;86.20
10133;DHT22;5106;50.926;7.080;2022-10-31T04:27:56;11.30;86.30
10133;DHT22;5106;50.926;7.080;2022-10-31T04:30:21;11.20;86.30
10133;DHT22;5106;50.926;7.080;2022-10-31T04:32:47;11.20;86.30
10133;DHT22;5106;50.926;7.080;2022-10-31T04:35:13;11.20;86.40
10133;DHT22;5106;50.926;7.080;2022-10-31T04:37:39;11.20;86.40
10133;DHT22;5106;50.926;7.080;2022-10-31T04:40:05;11.10;86.30
10133;DHT22;5106;50.926;7.080;2022-10-31T04:42:30;11.10;86.40
10133;DHT22;5106;50.926;7.080;2022-10-31T04:44:56;11.10;86.50
10133;DHT22;5106;50.926;7.080;2022-10-31T04:47:22;11.00;86.50
10133;DHT22;5106;50.926;7.080;2022-10-31T04:49:47;11.10;86.60
10133;DHT22;5106;50.926;7.080;2022-10-31T04:52:13;11.10;86.60
10133;DHT22;5106;50.926;7.080;2022-10-31T04:54:39;11.10;86.70
10133;DHT22;5106;50.926;7.080;2022-10-31T04:57:04;11.10;86.70
10133;DHT22;5106;50.926;7.080;2022-10-31T04:59:30;11.10;86.60
10133;DHT22;5106;50.926;7.080;2022-10-31T05:01:55;11.10;86.50
10133;DHT22;5106;50.926;7.080;2022-10-31T05:04:21;11.10;86.50
10133;DHT22;5106;50.926;7.080;2022-10-31T05:06:47;11.10;86.50
10133;DHT22;5106;50.926;7.080;2022-10-31T05:09:12;11.10;86.40
10133;DHT22;5106;50.926;7.080;2022-10-31T05:11:38;11.00;86.30
10133;DHT22;5106;50.926;7.080;2022-10-31T05:14:03;11.00;86.40
10133;DHT22;5106;50.926;7.080;2022-10-31T05:16:29;11.00;86.50
10133;DHT22;5106;50.926;7.080;2022-10-31T05:18:54;11.00;86.50
10133;DHT22;5106;50.926;7.080;2022-10-31T05:21:20;11.00;86.50
10133;DHT22;5106;50.926;7.080;2022-10-31T05:23:46;11.00;86.50
10133;DHT22;5106;50.926;7.080;2022-10-31T05:26:11;11.00;86.40
10133;DHT22;5106;50.926;7.080;2022-10-31T05:28:37;10.90;86.40
10133;DHT22;5106;50.926;7.080;2022-10-31T05:31:03;10.90;86.40
10133;DHT22;5106;50.926;7.080;2022-10-31T05:33:28;10.90;86.50
10133;DHT22;5106;50.926;7.080;2022-10-31T05:35:54;10.90;86.40
10133;DHT22;5106;50.926;7.080;2022-10-31T05:38:20;10.90;86.40
10133;DHT22;5106;50.926;7.080;2022-10-31T05:40:45;10.80;86.50
10133;DHT22;5106;50.926;7.080;2022-10-31T05:43:11;10.80;86.60
10133;DHT22;5106;50.926;7.080;2022-10-31T05:45:36;10.80;86.70
10133;DHT22;5106;50.926;7.080;2022-10-31T05:48:02;10.80;86.70
10133;DHT22;5106;50.926;7.080;2022-10-31T05:50:30;10.90;86.80
10133;DHT22;5106;50.926;7.080;2022-10-31T05:53:04;10.90;86.70
10133;DHT22;5106;50.926;7.080;2022-10-31T05:55:30;10.90;86.80
10133;DHT22;5106;50.926;7.080;2022-10-31T05:57:56;10.90;86.70
10133;DHT22;5106;50.926;7.080;2022-10-31T06:00:23;10.90;86.70
10133;DHT22;5106;50.926;7.080;2022-10-31T06:02:49;10.90;86.70
10133;DHT22;5106;50.926;7.080;2022-10-31T06:05:15;10.90;86.60
10133;DHT22;5106;50.926;7.080;2022-10-31T06:07:41;10.90;86.60
10133;DHT22;5106;50.926;7.080;2022-10-31T06:10:08;10.90;86.50
10133;DHT22;5106;50.926;7.080;2022-10-31T06:12:34;10.90;86.50
10133;DHT22;5106;50.926;7.080;2022-10-31T06:15:05;10.80;86.50
10133;DHT22;5106;50.926;7.080;2022-10-31T06:17:31;10.80;86.60
10133;DHT22;5106;50.926;7.080;2022-10-31T06:19:56;10.80;86.60
10133;DHT22;5106;50.926;7.080;2022-10-31T06:22:22;10.80;86.60
10133;DHT22;5106;50.926;7.080;2022-10-31T06:24:48;10.80;86.60
10133;DHT22;5106;50.926;7.080;2022-10-31T06:27:13;10.70;86.60
10133;DHT22;5106;50.926;7.080;2022-10-31T06:29:39;10.80;86.70
10133;DHT22;5106;50.926;7.080;2022-10-31T06:32:10;10.80;86.80
10133;DHT22;5106;50.926;7.080;2022-10-31T06:34:36;10.80;86.80
10133;DHT22;5106;50.926;7.080;2022-10-31T06:37:01;10.80;86.80
10133;DHT22;5106;50.926;7.080;2022-10-31T06:39:27;10.80;86.80
10133;DHT22;5106;50.926;7.080;2022-10-31T06:41:52;10.80;86.80
10133;DHT22;5106;50.926;7.080;2022-10-31T06:44:18;10.80;86.80
10133;DHT22;5106;50.926;7.080;2022-10-31T06:46:46;10.80;86.70
10133;DHT22;5106;50.926;7.080;2022-10-31T06:49:12;10.80;86.60
10133;DHT22;5106;50.926;7.080;2022-10-31T06:51:38;10.80;86.70
10133;DHT22;5106;50.926;7.080;2022-10-31T06:54:04;10.80;86.80
10133;DHT22;5106;50.926;7.080;2022-10-31T06:56:29;10.90;87.00
10133;DHT22;5106;50.926;7.080;2022-10-31T06:58:55;10.90;86.90
10133;DHT22;5106;50.926;7.080;2022-10-31T07:01:20;10.90;86.90
10133;DHT22;5106;50.926;7.080;2022-10-31T07:03:46;11.00;86.90
10133;DHT22;5106;50.926;7.080;2022-10-31T07:06:12;11.00;86.80
10133;DHT22;5106;50.926;7.080;2022-10-31T07:08:37;11.00;86.70
10133;DHT22;5106;50.926;7.080;2022-10-31T07:11:03;11.00;86.60
10133;DHT22;5106;50.926;7.080;2022-10-31T07:13:28;11.00;86.70
10133;DHT22;5106;50.926;7.080;2022-10-31T07:16:01;11.00;86.80
10133;DHT22;5106;50.926;7.080;2022-10-31T07:18:27;11.00;86.80
10133;DHT22;5106;50.926;7.080;2022-10-31T07:20:53;11.00;86.80
10133;DHT22;5106;50.926;7.080;2022-10-31T07:23:19;11.00;86.80
10133;DHT22;5106;50.926;7.080;2022-10-31T07:25:44;11.00;86.80
10133;DHT22;5106;50.926;7.080;2022-10-31T07:28:10;11.00;86.80
10133;DHT22;5106;50.926;7.080;2022-10-31T07:30:37;11.00;86.90
10133;DHT22;5106;50.926;7.080;2022-10-31T07:33:03;11.10;87.00
10133;DHT22;5106;50.926;7.080;2022-10-31T07:35:29;11.10;87.00
10133;DHT22;5106;50.926;7.080;2022-10-31T07:37:55;11.10;87.10
10133;DHT22;5106;50.926;7.080;2022-10-31T07:40:22;11.20;87.10
10133;DHT22;5106;50.926;7.080;2022-10-31T07:42:51;11.20;87.10
10133;DHT22;5106;50.926;7.080;2022-10-31T07:45:18;11.30;87.10
10133;DHT22;5106;50.926;7.080;2022-10-31T07:47:52;11.30;87.10
10133;DHT22;5106;50.926;7.080;2022-10-31T07:50:23;11.30;87.10
10133;DHT22;5106;50.926;7.080;2022-10-31T07:53:08;11.30;87.10
10133;DHT22;5106;50.926;7.080;2022-10-31T07:55:37;11.40;87.30
10133;DHT22;5106;50.926;7.080;2022-10-31T07:58:09;11.40;87.20
10133;DHT22;5106;50.926;7.080;2022-10-31T08:00:36;11.50;87.10
10133;DHT22;5106;50.926;7.080;2022-10-31T08:03:03;11.50;87.00
10133;DHT22;5106;50.926;7.080;2022-10-31T08:05:30;11.50;87.00
10133;DHT22;5106;50.926;7.080;2022-10-31T08:07:56;11.50;87.00
10133;DHT22;5106;50.926;7.080;2022-10-31T08:10:23;11.50;87.20
10133;DHT22;5106;50.926;7.080;2022-10-31T08:13:10;11.60;87.20
10133;DHT22;5106;50.926;7.080;2022-10-31T08:15:36;11.70;87.20
10133;DHT22;5106;50.926;7.080;2022-10-31T08:18:03;11.70;87.30
10133;DHT22;5106;50.926;7.080;2022-10-31T08:20:29;11.80;87.20
10133;DHT22;5106;50.926;7.080;2022-10-31T08:22:59;11.80;87.20
10133;DHT22;5106;50.926;7.080;2022-10-31T08:25:26;11.90;87.20
10133;DHT22;5106;50.926;7.080;2022-10-31T08:27:53;11.90;87.30
10133;DHT22;5106;50.926;7.080;2022-10-31T08:30:20;12.00;87.20
10133;DHT22;5106;50.926;7.080;2022-10-31T08:32:47;12.10;87.20
10133;DHT22;5106;50.926;7.080;2022-10-31T08:35:14;12.10;87.20
10133;DHT22;5106;50.926;7.080;2022-10-31T08:37:39;12.20;87.20
10133;DHT22;5106;50.926;7.080;2022-10-31T08:40:05;12.30;87.10
10133;DHT22;5106;50.926;7.080;2022-10-31T08:42:33;12.30;87.00
10133;DHT22;5106;50.926;7.080;2022-10-31T08:44:59;12.40;86.90
10133;DHT22;5106;50.926;7.080;2022-10-31T08:47:24;12.50;86.60
10133;DHT22;5106;50.926;7.080;2022-10-31T08:49:50;12.50;86.50
10133;DHT22;5106;50.926;7.080;2022-10-31T08:52:15;12.50;86.30
10133;DHT22;5106;50.926;7.080;2022-10-31T08:54:41;12.50;86.30
10133;DHT22;5106;50.926;7.080;2022-10-31T08:57:06;12.60;86.20
10133;DHT22;5106;50.926;7.080;2022-10-31T08:59:32;12.60;86.10
10133;DHT22;5106;50.926;7.080;2022-10-31T09:01:58;12.70;86.00
10133;DHT22;5106;50.926;7.080;2022-10-31T09:04:23;12.80;86.00
10133;DHT22;5106;50.926;7.080;2022-10-31T09:06:49;12.80;86.00
10133;DHT22;5106;50.926;7.080;2022-10-31T09:09:14;12.90;86.00
10133;DHT22;5106;50.926;7.080;2022-10-31T09:11:40;12.90;85.80
10133;DHT22;5106;50.926;7.080;2022-10-31T09:14:05;12.90;85.80
10133;DHT22;5106;50.926;7.080;2022-10-31T09:16:31;13.00;85.80
10133;DHT22;5106;50.926;7.080;2022-10-31T09:18:56;13.00;85.70
10133;DHT22;5106;50.926;7.080;2022-10-31T09:21:22;13.10;85.70
10133;DHT22;5106;50.926;7.080;2022-10-31T09:23:48;13.10;85.70
10133;DHT22;5106;50.926;7.080;2022-10-31T09:26:13;13.10;85.60
10133;DHT22;5106;50.926;7.080;2022-10-31T09:28:39;13.20;85.70
10133;DHT22;5106;50.926;7.080;2022-10-31T09:31:05;13.20;85.60
10133;DHT22;5106;50.926;7.080;2022-10-31T09:33:30;13.30;85.50
10133;DHT22;5106;50.926;7.080;2022-10-31T09:35:58;13.30;85.50
10133;DHT22;5106;50.926;7.080;2022-10-31T09:38:23;13.40;85.30
10133;DHT22;5106;50.926;7.080;2022-10-31T09:43:49;13.50;85.30
10133;DHT22;5106;50.926;7.080;2022-10-31T09:46:47;13.60;85.30
10133;DHT22;5106;50.926;7.080;2022-10-31T09:52:01;13.90;85.40
10133;DHT22;5106;50.926;7.080;2022-10-31T09:54:35;14.00;85.40
10133;DHT22;5106;50.926;7.080;2022-10-31T09:57:03;14.10;85.30
10133;DHT22;5106;50.926;7.080;2022-10-31T09:59:35;14.30;85.30
10133;DHT22;5106;50.926;7.080;2022-10-31T10:05:11;14.60;85.00
10133;DHT22;5106;50.926;7.080;2022-10-31T10:10:51;14.90;84.40
10133;DHT22;5106;50.926;7.080;2022-10-31T10:22:02;15.60;82.50
10133;DHT22;5106;50.926;7.080;2022-10-31T10:30:15;16.10;81.30
10133;DHT22;5106;50.926;7.080;2022-10-31T10:32:49;16.20;81.00
10133;DHT22;5106;50.926;7.080;2022-10-31T10:35:34;16.30;80.20
10133;DHT22;5106;50.926;7.080;2022-10-31T10:40:49;16.50;80.40
10133;DHT22;5106;50.926;7.080;2022-10-31T10:52:00;16.80;80.00
10133;DHT22;5106;50.926;7.080;2022-10-31T10:58:01;17.00;79.10
10133;DHT22;5106;50.926;7.080;2022-10-31T11:00:30;17.00;78.80
10133;DHT22;5106;50.926;7.080;2022-10-31T11:02:57;17.10;78.70
10133;DHT22;5106;50.926;7.080;2022-10-31T11:05:39;17.10;78.70
10133;DHT22;5106;50.926;7.080;2022-10-31T11:08:06;17.10;78.70
10133;DHT22;5106;50.926;7.080;2022-10-31T11:10:33;17.10;78.70
10133;DHT22;5106;50.926;7.080;2022-10-31T11:15:54;17.10;78.80
10133;DHT22;5106;50.926;7.080;2022-10-31T11:18:26;17.10;79.30
10133;DHT22;5106;50.926;7.080;2022-10-31T11:20:57;17.20;79.20
10133;DHT22;5106;50.926;7.080;2022-10-31T11:23:25;17.20;79.40
10133;DHT22;5106;50.926;7.080;2022-10-31T11:28:18;17.30;79.20
10133;DHT22;5106;50.926;7.080;2022-10-31T11:33:58;17.50;78.70
10133;DHT22;5106;50.926;7.080;2022-10-31T11:36:25;17.50;78.40
10133;DHT22;5106;50.926;7.080;2022-10-31T11:38:51;17.50;78.50
10133;DHT22;5106;50.926;7.080;2022-10-31T11:41:28;17.60;79.40
10133;DHT22;5106;50.926;7.080;2022-10-31T11:43:59;17.60;78.90
10133;DHT22;5106;50.926;7.080;2022-10-31T11:46:34;17.70;78.30
10133;DHT22;5106;50.926;7.080;2022-10-31T11:49:01;17.80;78.20
10133;DHT22;5106;50.926;7.080;2022-10-31T11:51:31;17.80;77.50
10133;DHT22;5106;50.926;7.080;2022-10-31T11:53:59;17.90;77.70
10133;DHT22;5106;50.926;7.080;2022-10-31T11:56:25;18.00;77.70
10133;DHT22;5106;50.926;7.080;2022-10-31T11:59:04;18.00;76.80
10133;DHT22;5106;50.926;7.080;2022-10-31T12:01:31;18.00;76.50
10133;DHT22;5106;50.926;7.080;2022-10-31T12:04:04;18.10;77.00
10133;DHT22;5106;50.926;7.080;2022-10-31T12:06:37;18.10;77.20
10133;DHT22;5106;50.926;7.080;2022-10-31T12:09:21;18.10;76.80
10133;DHT22;5106;50.926;7.080;2022-10-31T12:17:00;18.00;76.80
10133;DHT22;5106;50.926;7.080;2022-10-31T12:37:12;18.10;76.80
10133;DHT22;5106;50.926;7.080;2022-10-31T12:39:56;18.10;76.50
10133;DHT22;5106;50.926;7.080;2022-10-31T12:51:15;18.20;76.80
10133;DHT22;5106;50.926;7.080;2022-10-31T12:59:22;18.30;76.70
10133;DHT22;5106;50.926;7.080;2022-10-31T13:02:17;18.30;76.60
10133;DHT22;5106;50.926;7.080;2022-10-31T13:05:02;18.30;76.60
10133;DHT22;5106;50.926;7.080;2022-10-31T13:07:40;18.40;76.40
10133;DHT22;5106;50.926;7.080;2022-10-31T13:15:55;18.50;75.70
10133;DHT22;5106;50.926;7.080;2022-10-31T13:18:38;18.40;75.30
10133;DHT22;5106;50.926;7.080;2022-10-31T13:21:20;18.40;75.30
10133;DHT22;5106;50.926;7.080;2022-10-31T13:23:49;18.40;75.60
10133;DHT22;5106;50.926;7.080;2022-10-31T13:28:56;18.50;75.50
10133;DHT22;5106;50.926;7.080;2022-10-31T13:31:25;18.50;75.30
10133;DHT22;5106;50.926;7.080;2022-10-31T13:34:04;18.50;75.20
10133;DHT22;5106;50.926;7.080;2022-10-31T13:36:45;18.50;75.20
10133;DHT22;5106;50.926;7.080;2022-10-31T13:39:43;18.60;75.70
10133;DHT22;5106;50.926;7.080;2022-10-31T13:44:53;18.60;74.90
10133;DHT22;5106;50.926;7.080;2022-10-31T13:47:28;18.70;75.50
10133;DHT22;5106;50.926;7.080;2022-10-31T13:50:06;18.70;75.10
10133;DHT22;5106;50.926;7.080;2022-10-31T13:52:43;18.70;75.40
10133;DHT22;5106;50.926;7.080;2022-10-31T13:55:42;18.60;75.40
10133;DHT22;5106;50.926;7.080;2022-10-31T13:58:28;18.60;75.40
10133;DHT22;5106;50.926;7.080;2022-10-31T14:03:37;18.60;75.20
10133;DHT22;5106;50.926;7.080;2022-10-31T14:06:04;18.60;75.40
10133;DHT22;5106;50.926;7.080;2022-10-31T14:08:33;18.50;75.40
10133;DHT22;5106;50.926;7.080;2022-10-31T14:11:03;18.50;75.60
10133;DHT22;5106;50.926;7.080;2022-10-31T14:13:37;18.50;76.20
10133;DHT22;5106;50.926;7.080;2022-10-31T14:16:26;18.40;76.60
10133;DHT22;5106;50.926;7.080;2022-10-31T14:19:02;18.40;76.20
10133;DHT22;5106;50.926;7.080;2022-10-31T14:21:35;18.40;75.80
10133;DHT22;5106;50.926;7.080;2022-10-31T14:27:34;18.40;75.20
10133;DHT22;5106;50.926;7.080;2022-10-31T14:29:49;18.40;75.30
10133;DHT22;5106;50.926;7.080;2022-10-31T14:32:26;18.40;75.10
10133;DHT22;5106;50.926;7.080;2022-10-31T14:34:55;18.40;75.00
10133;DHT22;5106;50.926;7.080;2022-10-31T14:40:22;18.40;75.60
10133;DHT22;5106;50.926;7.080;2022-10-31T14:50:57;18.40;75.10
10133;DHT22;5106;50.926;7.080;2022-10-31T14:53:25;18.40;74.90
10133;DHT22;5106;50.926;7.080;2022-10-31T14:55:55;18.40;74.80
10133;DHT22;5106;50.926;7.080;2022-10-31T15:00:57;18.40;74.30
10133;DHT22;5106;50.926;7.080;2022-10-31T15:03:28;18.40;74.50
10133;DHT22;5106;50.926;7.080;2022-10-31T15:06:03;18.40;74.40
10133;DHT22;5106;50.926;7.080;2022-10-31T15:08:39;18.40;74.20
10133;DHT22;5106;50.926;7.080;2022-10-31T15:11:21;18.40;74.10
10133;DHT22;5106;50.926;7.080;2022-10-31T15:13:51;18.30;74.60
10133;DHT22;5106;50.926;7.080;2022-10-31T15:16:20;18.40;74.00
10133;DHT22;5106;50.926;7.080;2022-10-31T15:19:07;18.30;73.60
10133;DHT22;5106;50.926;7.080;2022-10-31T15:21:43;18.30;73.90
10133;DHT22;5106;50.926;7.080;2022-10-31T15:24:12;18.30;74.00
10133;DHT22;5106;50.926;7.080;2022-10-31T15:26:45;18.30;74.00
10133;DHT22;5106;50.926;7.080;2022-10-31T15:29:16;18.30;73.90
10133;DHT22;5106;50.926;7.080;2022-10-31T15:31:55;18.30;73.70
10133;DHT22;5106;50.926;7.080;2022-10-31T15:34:38;18.20;73.30
10133;DHT22;5106;50.926;7.080;2022-10-31T15:37:04;18.20;73.80
10133;DHT22;5106;50.926;7.080;2022-10-31T15:39:34;18.20;73.40
10133;DHT22;5106;50.926;7.080;2022-10-31T15:42:00;18.10;73.30
10133;DHT22;5106;50.926;7.080;2022-10-31T15:44:31;18.10;73.30
10133;DHT22;5106;50.926;7.080;2022-10-31T15:47:15;18.10;73.30
10133;DHT22;5106;50.926;7.080;2022-10-31T15:49:51;18.00;73.60
10133;DHT22;5106;50.926;7.080;2022-10-31T15:52:27;18.00;73.70
10133;DHT22;5106;50.926;7.080;2022-10-31T15:55:19;17.90;73.80
10133;DHT22;5106;50.926;7.080;2022-10-31T15:57:45;17.80;73.90
10133;DHT22;5106;50.926;7.080;2022-10-31T16:02:47;17.70;73.90
10133;DHT22;5106;50.926;7.080;2022-10-31T16:05:18;17.60;74.30
10133;DHT22;5106;50.926;7.080;2022-10-31T16:07:49;17.60;73.60
10133;DHT22;5106;50.926;7.080;2022-10-31T16:10:23;17.60;74.00
10133;DHT22;5106;50.926;7.080;2022-10-31T16:12:51;17.50;74.10
10133;DHT22;5106;50.926;7.080;2022-10-31T16:15:18;17.40;74.40
10133;DHT22;5106;50.926;7.080;2022-10-31T16:17:50;17.40;74.70
10133;DHT22;5106;50.926;7.080;2022-10-31T16:20:28;17.30;75.00
10133;DHT22;5106;50.926;7.080;2022-10-31T16:22:55;17.20;74.90
10133;DHT22;5106;50.926;7.080;2022-10-31T16:25:27;17.20;75.10
10133;DHT22;5106;50.926;7.080;2022-10-31T16:28:01;17.10;75.30
10133;DHT22;5106;50.926;7.080;2022-10-31T16:30:38;17.10;75.50
10133;DHT22;5106;50.926;7.080;2022-10-31T16:33:19;17.00;75.70
10133;DHT22;5106;50.926;7.080;2022-10-31T16:35:45;17.00;75.80
10133;DHT22;5106;50.926;7.080;2022-10-31T16:38:11;16.90;75.80
10133;DHT22;5106;50.926;7.080;2022-10-31T16:40:38;16.80;76.00
10133;DHT22;5106;50.926;7.080;2022-10-31T16:43:03;16.80;76.40
10133;DHT22;5106;50.926;7.080;2022-10-31T16:45:31;16.70;76.90
10133;DHT22;5106;50.926;7.080;2022-10-31T16:48:08;16.70;77.20
10133;DHT22;5106;50.926;7.080;2022-10-31T16:50:34;16.60;77.10
10133;DHT22;5106;50.926;7.080;2022-10-31T16:53:00;16.60;77.10
10133;DHT22;5106;50.926;7.080;2022-10-31T16:55:26;16.60;77.40
10133;DHT22;5106;50.926;7.080;2022-10-31T16:57:53;16.50;77.10
10133;DHT22;5106;50.926;7.080;2022-10-31T17:00:22;16.60;76.90
10133;DHT22;5106;50.926;7.080;2022-10-31T17:02:50;16.60;76.40
10133;DHT22;5106;50.926;7.080;2022-10-31T17:05:18;16.60;76.50
10133;DHT22;5106;50.926;7.080;2022-10-31T17:07:45;16.70;76.10
10133;DHT22;5106;50.926;7.080;2022-10-31T17:10:12;16.70;76.10
10133;DHT22;5106;50.926;7.080;2022-10-31T17:12:41;16.70;76.00
10133;DHT22;5106;50.926;7.080;2022-10-31T17:15:15;16.70;75.80
10133;DHT22;5106;50.926;7.080;2022-10-31T17:17:42;16.80;75.60
10133;DHT22;5106;50.926;7.080;2022-10-31T17:20:22;16.80;75.70
10133;DHT22;5106;50.926;7.080;2022-10-31T17:22:48;16.70;75.90
10133;DHT22;5106;50.926;7.080;2022-10-31T17:25:16;16.70;76.20
10133;DHT22;5106;50.926;7.080;2022-10-31T17:27:42;16.60;76.20
10133;DHT22;5106;50.926;7.080;2022-10-31T17:30:10;16.60;76.30
10133;DHT22;5106;50.926;7.080;2022-10-31T17:32:36;16.60;76.30
10133;DHT22;5106;50.926;7.080;2022-10-31T17:35:02;16.60;77.00
10133;DHT22;5106;50.926;7.080;2022-10-31T17:37:27;16.50;76.80
10133;DHT22;5106;50.926;7.080;2022-10-31T17:39:53;16.50;76.50
10133;DHT22;5106;50.926;7.080;2022-10-31T17:42:18;16.50;76.60
10133;DHT22;5106;50.926;7.080;2022-10-31T17:44:44;16.50;76.10
10133;DHT22;5106;50.926;7.080;2022-10-31T17:47:09;16.50;76.20
10133;DHT22;5106;50.926;7.080;2022-10-31T17:49:35;16.50;76.50
10133;DHT22;5106;50.926;7.080;2022-10-31T17:52:01;16.40;76.40
10133;DHT22;5106;50.926;7.080;2022-10-31T17:54:26;16.40;76.70
10133;DHT22;5106;50.926;7.080;2022-10-31T17:56:53;16.40;76.60
10133;DHT22;5106;50.926;7.080;2022-10-31T17:59:18;16.40;76.70
10133;DHT22;5106;50.926;7.080;2022-10-31T18:01:44;16.30;76.80
10133;DHT22;5106;50.926;7.080;2022-10-31T18:04:09;16.30;76.80
10133;DHT22;5106;50.926;7.080;2022-10-31T18:06:35;16.30;76.80
10133;DHT22;5106;50.926;7.080;2022-10-31T18:09:04;16.30;77.00
10133;DHT22;5106;50.926;7.080;2022-10-31T18:11:30;16.20;77.20
10133;DHT22;5106;50.926;7.080;2022-10-31T18:13:57;16.20;77.50
10133;DHT22;5106;50.926;7.080;2022-10-31T18:16:23;16.20;77.60
10133;DHT22;5106;50.926;7.080;2022-10-31T18:18:53;16.20;77.60
10133;DHT22;5106;50.926;7.080;2022-10-31T18:21:20;16.20;77.50
10133;DHT22;5106;50.926;7.080;2022-10-31T18:23:46;16.20;77.40
10133;DHT22;5106;50.926;7.080;2022-10-31T18:26:12;16.20;77.70